DLH973 EDDE-EDDV
Flight info
| Callsign | DLH973 |
|---|---|
| Flight time | 0h 42m |
| Altitude | 16000 |
| Route | LASTO1D LASTO M852 BIRKA T803 GITEX GITEX1X |
| Aircraft | A320/M-SDE3FGHIRWY/LB1 |
Departure
| Time | 2026-04-24 15:03 |
|---|---|
| Airport | Erfurt-Weimar Airport (EDDE) |
Arrival
| Time | 2026-04-24 15:46 |
|---|---|
| Airport | Hannover Airport (EDDV) |
| Time | Latitude | Longitude | Altitude | Speed | Heading |
|---|---|---|---|---|---|
| 2026-04-24 14:12 | 50.97587 | 10.96089 | 1026 ft | 0 kts | 189° |
| 2026-04-24 14:55 | 50.97595 | 10.96091 | 1024 ft | 4 kts | 187° |
| 2026-04-24 14:55 | 50.97621 | 10.96092 | 1026 ft | 4 kts | 165° |
| 2026-04-24 14:55 | 50.97641 | 10.96073 | 1025 ft | 4 kts | 105° |
| 2026-04-24 14:56 | 50.97643 | 10.96066 | 1026 ft | 0 kts | 98° |
| 2026-04-24 14:59 | 50.97642 | 10.96071 | 1025 ft | 3 kts | 98° |
| 2026-04-24 14:59 | 50.97636 | 10.96142 | 1026 ft | 10 kts | 98° |
| 2026-04-24 14:59 | 50.97675 | 10.96252 | 1026 ft | 16 kts | 11° |
| 2026-04-24 15:00 | 50.97719 | 10.96406 | 1025 ft | 21 kts | 99° |
| 2026-04-24 15:00 | 50.97698 | 10.96670 | 1023 ft | 27 kts | 96° |
| 2026-04-24 15:00 | 50.97679 | 10.96929 | 1022 ft | 25 kts | 96° |
| 2026-04-24 15:00 | 50.97692 | 10.97188 | 1023 ft | 24 kts | 81° |
| 2026-04-24 15:01 | 50.97706 | 10.97335 | 1023 ft | 5 kts | 81° |
| 2026-04-24 15:01 | 50.97716 | 10.97423 | 1023 ft | 0 kts | 73° |
| 2026-04-24 15:02 | 50.97724 | 10.97456 | 1023 ft | 7 kts | 63° |
| 2026-04-24 15:02 | 50.97772 | 10.97549 | 1022 ft | 15 kts | 43° |
| 2026-04-24 15:02 | 50.97851 | 10.97475 | 1020 ft | 19 kts | 270° |
| 2026-04-24 15:02 | 50.97859 | 10.97358 | 1022 ft | 24 kts | 277° |
| 2026-04-24 15:03 | 50.97914 | 10.96665 | 1026 ft | 99 kts | 277° |
| 2026-04-24 15:03 | 50.98025 | 10.95261 | 1032 ft | 155 kts | 277° |
| 2026-04-24 15:03 | 50.98180 | 10.93452 | 1450 ft | 168 kts | 278° |
| 2026-04-24 15:03 | 50.98336 | 10.91623 | 2186 ft | 168 kts | 277° |
| 2026-04-24 15:04 | 50.98490 | 10.89692 | 2589 ft | 187 kts | 277° |
| 2026-04-24 15:04 | 50.98655 | 10.87544 | 2915 ft | 212 kts | 277° |
| 2026-04-24 15:04 | 50.98839 | 10.85093 | 3328 ft | 235 kts | 276° |
| 2026-04-24 15:04 | 50.99044 | 10.82389 | 3837 ft | 257 kts | 276° |
| 2026-04-24 15:05 | 50.99265 | 10.79518 | 4712 ft | 265 kts | 278° |
| 2026-04-24 15:05 | 50.99869 | 10.76758 | 5586 ft | 270 kts | 305° |
| 2026-04-24 15:05 | 51.01276 | 10.74802 | 6446 ft | 275 kts | 334° |
| 2026-04-24 15:05 | 51.03160 | 10.74177 | 6867 ft | 279 kts | 5° |
| 2026-04-24 15:06 | 51.04966 | 10.75197 | 6990 ft | 280 kts | 33° |
| 2026-04-24 15:06 | 51.06490 | 10.77319 | 7259 ft | 304 kts | 50° |
| 2026-04-24 15:06 | 51.07661 | 10.80165 | 7940 ft | 314 kts | 62° |
| 2026-04-24 15:06 | 51.08703 | 10.83284 | 8791 ft | 319 kts | 62° |
| 2026-04-24 15:07 | 51.09748 | 10.86368 | 9610 ft | 323 kts | 61° |
| 2026-04-24 15:07 | 51.10802 | 10.89544 | 10442 ft | 327 kts | 66° |
| 2026-04-24 15:07 | 51.11487 | 10.93031 | 11227 ft | 331 kts | 80° |
| 2026-04-24 15:07 | 51.11819 | 10.96670 | 12006 ft | 335 kts | 77° |
| 2026-04-24 15:08 | 51.12654 | 11.00142 | 12743 ft | 339 kts | 59° |
| 2026-04-24 15:08 | 51.14160 | 11.03037 | 13468 ft | 342 kts | 40° |
| 2026-04-24 15:08 | 51.16193 | 11.05009 | 14174 ft | 345 kts | 20° |
| 2026-04-24 15:08 | 51.18530 | 11.05796 | 14842 ft | 348 kts | 1° |
| 2026-04-24 15:09 | 51.20938 | 11.05286 | 15520 ft | 351 kts | 341° |
| 2026-04-24 15:09 | 51.23204 | 11.03806 | 15908 ft | 353 kts | 336° |
| 2026-04-24 15:09 | 51.25449 | 11.02209 | 16001 ft | 353 kts | 335° |
| 2026-04-24 15:09 | 51.27688 | 11.00587 | 16009 ft | 353 kts | 335° |
| 2026-04-24 15:10 | 51.29912 | 10.98967 | 16009 ft | 353 kts | 335° |
| 2026-04-24 15:10 | 51.32156 | 10.97336 | 16009 ft | 353 kts | 335° |
| 2026-04-24 15:10 | 51.34395 | 10.95715 | 16009 ft | 353 kts | 335° |
| 2026-04-24 15:10 | 51.36640 | 10.94099 | 16008 ft | 353 kts | 335° |
| 2026-04-24 15:11 | 51.38855 | 10.92521 | 16008 ft | 353 kts | 336° |
| 2026-04-24 15:11 | 51.41125 | 10.90996 | 16009 ft | 353 kts | 337° |
| 2026-04-24 15:11 | 51.43394 | 10.89534 | 16009 ft | 353 kts | 338° |
| 2026-04-24 15:11 | 51.45688 | 10.88080 | 16009 ft | 353 kts | 338° |
| 2026-04-24 15:12 | 51.47977 | 10.86631 | 16011 ft | 353 kts | 338° |
| 2026-04-24 15:12 | 51.52542 | 10.83697 | 16013 ft | 353 kts | 338° |
| 2026-04-24 15:12 | 51.54821 | 10.82218 | 16013 ft | 353 kts | 338° |
| 2026-04-24 15:13 | 51.57103 | 10.80728 | 16014 ft | 354 kts | 338° |
| 2026-04-24 15:13 | 51.59377 | 10.79237 | 16013 ft | 354 kts | 337° |
| 2026-04-24 15:13 | 51.61652 | 10.77744 | 16012 ft | 354 kts | 338° |
| 2026-04-24 15:13 | 51.63943 | 10.76244 | 16010 ft | 354 kts | 338° |
| 2026-04-24 15:14 | 51.66229 | 10.74746 | 16010 ft | 354 kts | 338° |
| 2026-04-24 15:14 | 51.68509 | 10.73246 | 16010 ft | 354 kts | 337° |
| 2026-04-24 15:14 | 51.70793 | 10.71740 | 16010 ft | 354 kts | 337° |
| 2026-04-24 15:14 | 51.73052 | 10.70249 | 16010 ft | 354 kts | 337° |
| 2026-04-24 15:15 | 51.75341 | 10.68736 | 16009 ft | 354 kts | 337° |
| 2026-04-24 15:15 | 51.77626 | 10.67226 | 16007 ft | 354 kts | 337° |
| 2026-04-24 15:15 | 51.79913 | 10.65716 | 16005 ft | 355 kts | 337° |
| 2026-04-24 15:15 | 51.82199 | 10.64208 | 16006 ft | 355 kts | 337° |
| 2026-04-24 15:16 | 51.84486 | 10.62696 | 16009 ft | 355 kts | 337° |
| 2026-04-24 15:16 | 51.86769 | 10.61184 | 16012 ft | 355 kts | 337° |
| 2026-04-24 15:16 | 51.89058 | 10.59668 | 16015 ft | 355 kts | 337° |
| 2026-04-24 15:16 | 51.91342 | 10.58153 | 16019 ft | 355 kts | 337° |
| 2026-04-24 15:17 | 51.93626 | 10.56635 | 16021 ft | 354 kts | 337° |
| 2026-04-24 15:17 | 51.95906 | 10.55116 | 16024 ft | 354 kts | 337° |
| 2026-04-24 15:17 | 51.98125 | 10.53435 | 15907 ft | 349 kts | 329° |
| 2026-04-24 15:17 | 52.00050 | 10.51112 | 15660 ft | 342 kts | 316° |
| 2026-04-24 15:18 | 52.01613 | 10.48251 | 15413 ft | 338 kts | 305° |
| 2026-04-24 15:18 | 52.02896 | 10.45056 | 15159 ft | 336 kts | 302° |
| 2026-04-24 15:18 | 52.04017 | 10.42221 | 14937 ft | 335 kts | 302° |
| 2026-04-24 15:18 | 52.05276 | 10.39046 | 14684 ft | 334 kts | 302° |
| 2026-04-24 15:19 | 52.06514 | 10.35928 | 14439 ft | 331 kts | 302° |
| 2026-04-24 15:19 | 52.07755 | 10.32792 | 14080 ft | 328 kts | 302° |
| 2026-04-24 15:19 | 52.08987 | 10.29676 | 13675 ft | 327 kts | 302° |
| 2026-04-24 15:19 | 52.10212 | 10.26572 | 13247 ft | 326 kts | 302° |
| 2026-04-24 15:20 | 52.11432 | 10.23473 | 12814 ft | 325 kts | 302° |
| 2026-04-24 15:20 | 52.12643 | 10.20392 | 12383 ft | 324 kts | 302° |
| 2026-04-24 15:20 | 52.13854 | 10.17298 | 11950 ft | 322 kts | 302° |
| 2026-04-24 15:20 | 52.15055 | 10.14221 | 11515 ft | 321 kts | 302° |
| 2026-04-24 15:21 | 52.16247 | 10.11165 | 11079 ft | 320 kts | 302° |
| 2026-04-24 15:21 | 52.17438 | 10.08112 | 10637 ft | 319 kts | 302° |
| 2026-04-24 15:21 | 52.18626 | 10.05064 | 10219 ft | 316 kts | 302° |
| 2026-04-24 15:21 | 52.19780 | 10.02099 | 10093 ft | 304 kts | 302° |
| 2026-04-24 15:22 | 52.20892 | 9.99233 | 9952 ft | 294 kts | 302° |
| 2026-04-24 15:22 | 52.21976 | 9.96434 | 9655 ft | 290 kts | 302° |
| 2026-04-24 15:22 | 52.23067 | 9.93682 | 9251 ft | 289 kts | 307° |
| 2026-04-24 15:23 | 52.26396 | 9.90510 | 8638 ft | 281 kts | 356° |
| 2026-04-24 15:23 | 52.30103 | 9.92196 | 7854 ft | 280 kts | 24° |
| 2026-04-24 15:23 | 52.31874 | 9.93506 | 7461 ft | 279 kts | 24° |
| 2026-04-24 15:24 | 52.37122 | 9.97442 | 6329 ft | 274 kts | 24° |
| 2026-04-24 15:25 | 52.39938 | 9.99563 | 6021 ft | 259 kts | 24° |
| 2026-04-24 15:25 | 52.43667 | 10.01761 | 5725 ft | 233 kts | 355° |
| 2026-04-24 15:26 | 52.46948 | 9.97328 | 5239 ft | 186 kts | 301° |
| 2026-04-24 15:27 | 52.46686 | 9.92065 | 4336 ft | 159 kts | 247° |
| 2026-04-24 15:27 | 52.45370 | 9.87031 | 2924 ft | 168 kts | 246° |
| 2026-04-24 15:28 | 52.45146 | 9.80298 | 2857 ft | 143 kts | 272° |
| 2026-04-24 15:29 | 52.45232 | 9.77093 | 2854 ft | 142 kts | 272° |
| 2026-04-24 15:30 | 52.43107 | 9.74514 | 2851 ft | 190 kts | 177° |
| 2026-04-24 15:31 | 52.38124 | 9.75336 | 2856 ft | 197 kts | 174° |
| 2026-04-24 15:32 | 52.32861 | 9.78252 | 2883 ft | 184 kts | 105° |
| 2026-04-24 15:33 | 52.33018 | 9.84994 | 2847 ft | 152 kts | 84° |
| 2026-04-24 15:33 | 52.33315 | 9.90117 | 2851 ft | 150 kts | 84° |
| 2026-04-24 15:34 | 52.33513 | 9.93523 | 2847 ft | 151 kts | 84° |
| 2026-04-24 15:35 | 52.33812 | 9.98629 | 2859 ft | 150 kts | 85° |
| 2026-04-24 15:35 | 52.34012 | 10.02038 | 2845 ft | 150 kts | 84° |
| 2026-04-24 15:35 | 52.34112 | 10.03738 | 2846 ft | 150 kts | 84° |
| 2026-04-24 15:36 | 52.34210 | 10.05444 | 2853 ft | 151 kts | 84° |
| 2026-04-24 15:36 | 52.34408 | 10.08846 | 2854 ft | 150 kts | 84° |
| 2026-04-24 15:36 | 52.34507 | 10.10547 | 2854 ft | 150 kts | 84° |
| 2026-04-24 15:37 | 52.34607 | 10.12250 | 2851 ft | 150 kts | 84° |
| 2026-04-24 15:37 | 52.34706 | 10.13950 | 2855 ft | 150 kts | 84° |
| 2026-04-24 15:37 | 52.34809 | 10.15649 | 2852 ft | 150 kts | 82° |
| 2026-04-24 15:37 | 52.35262 | 10.17129 | 2874 ft | 147 kts | 33° |
| 2026-04-24 15:38 | 52.36242 | 10.17500 | 3151 ft | 152 kts | 344° |
| 2026-04-24 15:38 | 52.37170 | 10.17081 | 3785 ft | 138 kts | 337° |
| 2026-04-24 15:38 | 52.38131 | 10.16440 | 3988 ft | 159 kts | 338° |
| 2026-04-24 15:38 | 52.39274 | 10.15818 | 4008 ft | 189 kts | 344° |
| 2026-04-24 15:39 | 52.40574 | 10.15251 | 3954 ft | 196 kts | 345° |
| 2026-04-24 15:39 | 52.41909 | 10.14668 | 3953 ft | 199 kts | 344° |
| 2026-04-24 15:39 | 52.43222 | 10.13948 | 3843 ft | 202 kts | 330° |
| 2026-04-24 15:39 | 52.44221 | 10.12310 | 3200 ft | 212 kts | 295° |
| 2026-04-24 15:40 | 52.44485 | 10.09991 | 2901 ft | 198 kts | 270° |
| 2026-04-24 15:40 | 52.44457 | 10.07915 | 2842 ft | 170 kts | 266° |
| 2026-04-24 15:40 | 52.44425 | 10.06026 | 2852 ft | 161 kts | 270° |
| 2026-04-24 15:40 | 52.44445 | 10.04233 | 2839 ft | 152 kts | 272° |
| 2026-04-24 15:41 | 52.44484 | 10.02526 | 2855 ft | 148 kts | 272° |
| 2026-04-24 15:41 | 52.44530 | 10.00856 | 2854 ft | 146 kts | 272° |
| 2026-04-24 15:41 | 52.44579 | 9.99188 | 2850 ft | 146 kts | 272° |
| 2026-04-24 15:41 | 52.44628 | 9.97534 | 2856 ft | 146 kts | 272° |
| 2026-04-24 15:42 | 52.44678 | 9.95889 | 2843 ft | 146 kts | 273° |
| 2026-04-24 15:42 | 52.44727 | 9.94239 | 2824 ft | 146 kts | 274° |
| 2026-04-24 15:42 | 52.44777 | 9.92591 | 2739 ft | 144 kts | 272° |
| 2026-04-24 15:42 | 52.44826 | 9.90966 | 2550 ft | 142 kts | 273° |
| 2026-04-24 15:43 | 52.44874 | 9.89335 | 2364 ft | 141 kts | 273° |
| 2026-04-24 15:43 | 52.44921 | 9.87758 | 2182 ft | 141 kts | 273° |
| 2026-04-24 15:43 | 52.44968 | 9.86169 | 1991 ft | 139 kts | 272° |
| 2026-04-24 15:43 | 52.45015 | 9.84579 | 1807 ft | 139 kts | 273° |
| 2026-04-24 15:44 | 52.45061 | 9.82993 | 1626 ft | 139 kts | 272° |
| 2026-04-24 15:44 | 52.45107 | 9.81411 | 1444 ft | 138 kts | 272° |
| 2026-04-24 15:44 | 52.45153 | 9.79834 | 1258 ft | 138 kts | 272° |
| 2026-04-24 15:44 | 52.45199 | 9.78264 | 1078 ft | 138 kts | 273° |
| 2026-04-24 15:45 | 52.45244 | 9.76701 | 897 ft | 137 kts | 272° |
| 2026-04-24 15:45 | 52.45288 | 9.75138 | 710 ft | 137 kts | 272° |
| 2026-04-24 15:45 | 52.45333 | 9.73584 | 530 ft | 137 kts | 272° |
| 2026-04-24 15:45 | 52.45377 | 9.72026 | 350 ft | 136 kts | 272° |
| 2026-04-24 15:46 | 52.45419 | 9.70494 | 202 ft | 133 kts | 272° |
| 2026-04-24 15:46 | 52.45449 | 9.69474 | 188 ft | 43 kts | 273° |
| 2026-04-24 15:46 | 52.45457 | 9.69214 | 197 ft | 3 kts | 278° |
| 2026-04-24 15:46 | 52.45460 | 9.69192 | 196 ft | 2 kts | 281° |
| 2026-04-24 15:47 | 52.45501 | 9.69135 | 197 ft | 14 kts | 352° |
| 2026-04-24 15:47 | 52.45522 | 9.69136 | 185 ft | 1 kts | 2° |
| 2026-04-24 15:47 | 52.45587 | 9.69141 | 182 ft | 5 kts | 3° |
| 2026-04-24 15:47 | 52.45617 | 9.69201 | 181 ft | 14 kts | 76° |
| 2026-04-24 15:48 | 52.45559 | 9.69322 | 196 ft | 13 kts | 95° |
| 2026-04-24 15:48 | 52.45609 | 9.69488 | 181 ft | 14 kts | 86° |
| 2026-04-24 15:48 | 52.45610 | 9.69594 | 183 ft | 1 kts | 90° |
| 2026-04-24 15:48 | 52.45610 | 9.69671 | 194 ft | 12 kts | 90° |
| 2026-04-24 15:49 | 52.45609 | 9.69756 | 182 ft | 0 kts | 91° |
| 2026-04-24 15:49 | 52.45611 | 9.69776 | 181 ft | 8 kts | 79° |
| 2026-04-24 15:49 | 52.45662 | 9.69797 | 180 ft | 11 kts | 308° |
| 2026-04-24 15:49 | 52.45678 | 9.69611 | 181 ft | 22 kts | 270° |
| 2026-04-24 15:50 | 52.45683 | 9.69537 | 183 ft | 0 kts | 285° |
| 2026-04-24 15:50 | 52.45691 | 9.69499 | 182 ft | 10 kts | 296° |
| 2026-04-24 15:50 | 52.45754 | 9.69350 | 172 ft | 15 kts | 269° |
| 2026-04-24 15:50 | 52.45812 | 9.69362 | 178 ft | 13 kts | 43° |
| 2026-04-24 15:51 | 52.45833 | 9.69385 | 182 ft | 0 kts | 30° |